sensor_id;sensor_type;location;lat;lon;timestamp;P1;durP1;ratioP1;P2;durP2;ratioP2
75990;SDS011;64673;52.276;10.560;2022-12-10T00:00:50;28.92;;;7.85;;
75990;SDS011;64673;52.276;10.560;2022-12-10T00:03:15;28.05;;;7.85;;
75990;SDS011;64673;52.276;10.560;2022-12-10T00:05:41;26.63;;;8.80;;
75990;SDS011;64673;52.276;10.560;2022-12-10T00:08:06;21.05;;;7.05;;
75990;SDS011;64673;52.276;10.560;2022-12-10T00:10:31;27.40;;;9.45;;
75990;SDS011;64673;52.276;10.560;2022-12-10T00:12:57;24.25;;;7.65;;
75990;SDS011;64673;52.276;10.560;2022-12-10T00:15:22;35.45;;;8.27;;
75990;SDS011;64673;52.276;10.560;2022-12-10T00:17:50;21.77;;;7.20;;
75990;SDS011;64673;52.276;10.560;2022-12-10T00:20:15;26.27;;;8.70;;
75990;SDS011;64673;52.276;10.560;2022-12-10T00:22:41;29.85;;;7.85;;
75990;SDS011;64673;52.276;10.560;2022-12-10T00:25:06;24.45;;;8.35;;
75990;SDS011;64673;52.276;10.560;2022-12-10T00:27:32;25.88;;;8.52;;
75990;SDS011;64673;52.276;10.560;2022-12-10T00:29:57;27.25;;;8.48;;
75990;SDS011;64673;52.276;10.560;2022-12-10T00:32:22;26.63;;;8.70;;
75990;SDS011;64673;52.276;10.560;2022-12-10T00:34:48;25.42;;;8.48;;
75990;SDS011;64673;52.276;10.560;2022-12-10T00:37:13;32.38;;;9.40;;
75990;SDS011;64673;52.276;10.560;2022-12-10T00:39:38;26.80;;;8.95;;
75990;SDS011;64673;52.276;10.560;2022-12-10T00:42:04;27.13;;;7.95;;
75990;SDS011;64673;52.276;10.560;2022-12-10T00:44:29;27.20;;;9.15;;
75990;SDS011;64673;52.276;10.560;2022-12-10T00:46:54;30.10;;;8.80;;
75990;SDS011;64673;52.276;10.560;2022-12-10T00:49:20;31.07;;;8.63;;
75990;SDS011;64673;52.276;10.560;2022-12-10T00:54:13;26.70;;;8.45;;
75990;SDS011;64673;52.276;10.560;2022-12-10T00:56:38;29.13;;;7.57;;
75990;SDS011;64673;52.276;10.560;2022-12-10T00:59:04;30.45;;;8.98;;
75990;SDS011;64673;52.276;10.560;2022-12-10T01:01:36;29.08;;;8.45;;
75990;SDS011;64673;52.276;10.560;2022-12-10T01:04:05;30.70;;;8.13;;
75990;SDS011;64673;52.276;10.560;2022-12-10T01:06:34;26.52;;;8.38;;
75990;SDS011;64673;52.276;10.560;2022-12-10T01:09:03;22.13;;;6.55;;
75990;SDS011;64673;52.276;10.560;2022-12-10T01:11:31;22.85;;;8.15;;
75990;SDS011;64673;52.276;10.560;2022-12-10T01:13:59;24.95;;;8.60;;
75990;SDS011;64673;52.276;10.560;2022-12-10T01:16:25;30.95;;;9.15;;
75990;SDS011;64673;52.276;10.560;2022-12-10T01:18:54;24.83;;;7.75;;
75990;SDS011;64673;52.276;10.560;2022-12-10T01:21:21;24.52;;;7.60;;
75990;SDS011;64673;52.276;10.560;2022-12-10T01:23:49;32.60;;;8.18;;
75990;SDS011;64673;52.276;10.560;2022-12-10T01:26:16;29.67;;;7.95;;
75990;SDS011;64673;52.276;10.560;2022-12-10T01:28:44;28.10;;;9.40;;
75990;SDS011;64673;52.276;10.560;2022-12-10T01:31:19;25.70;;;7.93;;
75990;SDS011;64673;52.276;10.560;2022-12-10T01:33:47;32.40;;;8.05;;
75990;SDS011;64673;52.276;10.560;2022-12-10T01:36:17;23.75;;;7.82;;
75990;SDS011;64673;52.276;10.560;2022-12-10T01:38:45;22.85;;;6.80;;
75990;SDS011;64673;52.276;10.560;2022-12-10T01:41:15;24.70;;;7.78;;
75990;SDS011;64673;52.276;10.560;2022-12-10T01:43:50;31.42;;;9.07;;
75990;SDS011;64673;52.276;10.560;2022-12-10T01:46:18;24.92;;;8.00;;
75990;SDS011;64673;52.276;10.560;2022-12-10T01:48:45;27.25;;;8.20;;
75990;SDS011;64673;52.276;10.560;2022-12-10T01:51:11;26.48;;;8.75;;
75990;SDS011;64673;52.276;10.560;2022-12-10T01:53:37;25.55;;;6.85;;
75990;SDS011;64673;52.276;10.560;2022-12-10T01:56:03;22.38;;;7.75;;
75990;SDS011;64673;52.276;10.560;2022-12-10T01:58:29;20.13;;;6.80;;
75990;SDS011;64673;52.276;10.560;2022-12-10T02:01:00;20.17;;;6.97;;
75990;SDS011;64673;52.276;10.560;2022-12-10T02:09:25;24.92;;;7.40;;
75990;SDS011;64673;52.276;10.560;2022-12-10T02:12:14;24.55;;;7.03;;
75990;SDS011;64673;52.276;10.560;2022-12-10T02:17:29;28.60;;;8.35;;
75990;SDS011;64673;52.276;10.560;2022-12-10T02:22:25;22.40;;;8.32;;
75990;SDS011;64673;52.276;10.560;2022-12-10T02:24:53;24.05;;;7.35;;
75990;SDS011;64673;52.276;10.560;2022-12-10T02:29:51;24.40;;;7.65;;
75990;SDS011;64673;52.276;10.560;2022-12-10T02:32:23;22.52;;;6.65;;
75990;SDS011;64673;52.276;10.560;2022-12-10T02:34:54;27.75;;;7.97;;
75990;SDS011;64673;52.276;10.560;2022-12-10T02:37:24;20.42;;;7.88;;
75990;SDS011;64673;52.276;10.560;2022-12-10T02:39:55;22.48;;;6.88;;
75990;SDS011;64673;52.276;10.560;2022-12-10T02:44:48;23.92;;;7.10;;
75990;SDS011;64673;52.276;10.560;2022-12-10T02:47:15;20.00;;;7.05;;
75990;SDS011;64673;52.276;10.560;2022-12-10T02:49:42;23.00;;;7.03;;
75990;SDS011;64673;52.276;10.560;2022-12-10T02:52:12;27.92;;;8.90;;
75990;SDS011;64673;52.276;10.560;2022-12-10T02:54:43;18.60;;;6.97;;
75990;SDS011;64673;52.276;10.560;2022-12-10T03:07:46;20.67;;;7.03;;
75990;SDS011;64673;52.276;10.560;2022-12-10T03:13:04;21.25;;;7.07;;
75990;SDS011;64673;52.276;10.560;2022-12-10T03:15:35;22.15;;;7.75;;
75990;SDS011;64673;52.276;10.560;2022-12-10T03:18:04;28.75;;;7.50;;
75990;SDS011;64673;52.276;10.560;2022-12-10T03:20:33;24.02;;;7.18;;
75990;SDS011;64673;52.276;10.560;2022-12-10T03:23:02;24.58;;;6.55;;
75990;SDS011;64673;52.276;10.560;2022-12-10T03:25:30;21.15;;;6.88;;
75990;SDS011;64673;52.276;10.560;2022-12-10T03:27:57;21.75;;;6.10;;
75990;SDS011;64673;52.276;10.560;2022-12-10T03:30:25;22.88;;;7.10;;
75990;SDS011;64673;52.276;10.560;2022-12-10T03:32:52;22.88;;;6.75;;
75990;SDS011;64673;52.276;10.560;2022-12-10T03:35:19;23.20;;;7.68;;
75990;SDS011;64673;52.276;10.560;2022-12-10T03:37:48;27.38;;;8.48;;
75990;SDS011;64673;52.276;10.560;2022-12-10T03:40:14;25.15;;;7.78;;
75990;SDS011;64673;52.276;10.560;2022-12-10T03:42:42;24.58;;;7.45;;
75990;SDS011;64673;52.276;10.560;2022-12-10T03:45:08;24.90;;;6.50;;
75990;SDS011;64673;52.276;10.560;2022-12-10T03:47:34;24.23;;;7.20;;
75990;SDS011;64673;52.276;10.560;2022-12-10T03:49:59;23.80;;;8.43;;
75990;SDS011;64673;52.276;10.560;2022-12-10T03:52:25;26.45;;;7.85;;
75990;SDS011;64673;52.276;10.560;2022-12-10T03:54:50;22.80;;;7.50;;
75990;SDS011;64673;52.276;10.560;2022-12-10T03:57:15;24.15;;;8.75;;
75990;SDS011;64673;52.276;10.560;2022-12-10T03:59:41;31.63;;;8.93;;
75990;SDS011;64673;52.276;10.560;2022-12-10T04:02:07;25.02;;;7.60;;
75990;SDS011;64673;52.276;10.560;2022-12-10T04:04:32;29.47;;;8.20;;
75990;SDS011;64673;52.276;10.560;2022-12-10T04:06:58;28.52;;;8.23;;
75990;SDS011;64673;52.276;10.560;2022-12-10T04:09:23;26.35;;;8.07;;
75990;SDS011;64673;52.276;10.560;2022-12-10T04:11:49;27.95;;;8.55;;
75990;SDS011;64673;52.276;10.560;2022-12-10T04:14:14;23.08;;;6.97;;
75990;SDS011;64673;52.276;10.560;2022-12-10T04:16:58;25.35;;;8.00;;
75990;SDS011;64673;52.276;10.560;2022-12-10T04:19:24;25.92;;;7.97;;
75990;SDS011;64673;52.276;10.560;2022-12-10T04:21:49;21.75;;;6.97;;
75990;SDS011;64673;52.276;10.560;2022-12-10T04:24:34;27.02;;;7.85;;
75990;SDS011;64673;52.276;10.560;2022-12-10T04:27:29;23.73;;;8.63;;
75990;SDS011;64673;52.276;10.560;2022-12-10T04:29:56;22.88;;;8.13;;
75990;SDS011;64673;52.276;10.560;2022-12-10T04:32:23;28.80;;;8.95;;
75990;SDS011;64673;52.276;10.560;2022-12-10T04:34:50;26.42;;;8.25;;
75990;SDS011;64673;52.276;10.560;2022-12-10T04:37:15;27.58;;;8.63;;
75990;SDS011;64673;52.276;10.560;2022-12-10T04:39:42;27.23;;;8.73;;
75990;SDS011;64673;52.276;10.560;2022-12-10T04:42:07;35.85;;;10.35;;
75990;SDS011;64673;52.276;10.560;2022-12-10T04:44:33;29.08;;;9.27;;
75990;SDS011;64673;52.276;10.560;2022-12-10T04:46:59;32.20;;;9.48;;
75990;SDS011;64673;52.276;10.560;2022-12-10T04:49:25;29.92;;;9.68;;
75990;SDS011;64673;52.276;10.560;2022-12-10T04:51:51;34.78;;;8.95;;
75990;SDS011;64673;52.276;10.560;2022-12-10T04:54:17;31.85;;;9.70;;
75990;SDS011;64673;52.276;10.560;2022-12-10T04:56:43;29.83;;;9.10;;
75990;SDS011;64673;52.276;10.560;2022-12-10T04:59:09;28.40;;;8.18;;
75990;SDS011;64673;52.276;10.560;2022-12-10T05:01:34;26.73;;;8.20;;
75990;SDS011;64673;52.276;10.560;2022-12-10T05:04:01;28.02;;;9.10;;
75990;SDS011;64673;52.276;10.560;2022-12-10T05:06:29;27.08;;;8.80;;
75990;SDS011;64673;52.276;10.560;2022-12-10T05:08:55;26.35;;;8.57;;
75990;SDS011;64673;52.276;10.560;2022-12-10T05:11:22;23.08;;;7.82;;
75990;SDS011;64673;52.276;10.560;2022-12-10T05:13:49;22.10;;;7.30;;
75990;SDS011;64673;52.276;10.560;2022-12-10T05:16:16;23.80;;;8.52;;
75990;SDS011;64673;52.276;10.560;2022-12-10T05:18:43;27.83;;;8.82;;
75990;SDS011;64673;52.276;10.560;2022-12-10T05:21:15;24.73;;;8.50;;
75990;SDS011;64673;52.276;10.560;2022-12-10T05:23:43;27.52;;;8.57;;
75990;SDS011;64673;52.276;10.560;2022-12-10T05:26:11;26.02;;;9.10;;
75990;SDS011;64673;52.276;10.560;2022-12-10T05:28:38;26.00;;;8.68;;
75990;SDS011;64673;52.276;10.560;2022-12-10T05:31:11;27.05;;;8.27;;
75990;SDS011;64673;52.276;10.560;2022-12-10T05:33:47;25.02;;;8.40;;
75990;SDS011;64673;52.276;10.560;2022-12-10T05:36:14;30.38;;;8.25;;
75990;SDS011;64673;52.276;10.560;2022-12-10T05:41:09;23.48;;;7.88;;
75990;SDS011;64673;52.276;10.560;2022-12-10T05:43:38;19.60;;;6.47;;
75990;SDS011;64673;52.276;10.560;2022-12-10T05:46:05;25.25;;;7.47;;
75990;SDS011;64673;52.276;10.560;2022-12-10T05:48:33;25.67;;;7.53;;
75990;SDS011;64673;52.276;10.560;2022-12-10T05:51:02;19.88;;;7.22;;
75990;SDS011;64673;52.276;10.560;2022-12-10T05:53:32;23.67;;;7.13;;
75990;SDS011;64673;52.276;10.560;2022-12-10T05:56:01;31.88;;;10.50;;
75990;SDS011;64673;52.276;10.560;2022-12-10T05:58:29;25.48;;;8.30;;
75990;SDS011;64673;52.276;10.560;2022-12-10T06:00:55;27.10;;;9.48;;
75990;SDS011;64673;52.276;10.560;2022-12-10T06:03:22;28.92;;;8.65;;
75990;SDS011;64673;52.276;10.560;2022-12-10T06:05:47;27.85;;;8.68;;
75990;SDS011;64673;52.276;10.560;2022-12-10T06:08:12;30.25;;;8.55;;
75990;SDS011;64673;52.276;10.560;2022-12-10T06:10:38;28.40;;;8.40;;
75990;SDS011;64673;52.276;10.560;2022-12-10T06:13:03;26.73;;;9.35;;
75990;SDS011;64673;52.276;10.560;2022-12-10T06:15:29;34.15;;;10.40;;
75990;SDS011;64673;52.276;10.560;2022-12-10T06:17:55;31.70;;;10.50;;
75990;SDS011;64673;52.276;10.560;2022-12-10T06:20:21;32.80;;;10.05;;
75990;SDS011;64673;52.276;10.560;2022-12-10T06:22:48;23.02;;;8.05;;
75990;SDS011;64673;52.276;10.560;2022-12-10T06:25:13;34.50;;;9.63;;
75990;SDS011;64673;52.276;10.560;2022-12-10T06:27:39;25.92;;;8.13;;
75990;SDS011;64673;52.276;10.560;2022-12-10T06:30:04;29.42;;;8.00;;
75990;SDS011;64673;52.276;10.560;2022-12-10T06:32:30;28.33;;;8.48;;
75990;SDS011;64673;52.276;10.560;2022-12-10T06:34:55;29.00;;;8.80;;
75990;SDS011;64673;52.276;10.560;2022-12-10T06:37:21;27.60;;;8.57;;
75990;SDS011;64673;52.276;10.560;2022-12-10T06:39:46;27.30;;;8.20;;
75990;SDS011;64673;52.276;10.560;2022-12-10T06:42:11;27.15;;;8.77;;
75990;SDS011;64673;52.276;10.560;2022-12-10T06:44:36;28.33;;;8.65;;
75990;SDS011;64673;52.276;10.560;2022-12-10T06:47:02;24.97;;;8.10;;
75990;SDS011;64673;52.276;10.560;2022-12-10T06:49:27;26.02;;;7.88;;
75990;SDS011;64673;52.276;10.560;2022-12-10T06:51:52;26.30;;;7.43;;
75990;SDS011;64673;52.276;10.560;2022-12-10T06:54:18;27.20;;;8.63;;
75990;SDS011;64673;52.276;10.560;2022-12-10T06:56:43;28.20;;;7.85;;
75990;SDS011;64673;52.276;10.560;2022-12-10T06:59:08;28.90;;;7.57;;
75990;SDS011;64673;52.276;10.560;2022-12-10T07:01:34;29.92;;;8.60;;
75990;SDS011;64673;52.276;10.560;2022-12-10T07:03:59;24.00;;;7.88;;
75990;SDS011;64673;52.276;10.560;2022-12-10T07:06:25;23.92;;;7.35;;
75990;SDS011;64673;52.276;10.560;2022-12-10T07:08:53;23.20;;;7.45;;
75990;SDS011;64673;52.276;10.560;2022-12-10T07:11:20;23.15;;;6.60;;
75990;SDS011;64673;52.276;10.560;2022-12-10T07:13:47;16.38;;;6.25;;
75990;SDS011;64673;52.276;10.560;2022-12-10T07:18:38;21.58;;;7.10;;
75990;SDS011;64673;52.276;10.560;2022-12-10T07:21:12;27.45;;;7.28;;
75990;SDS011;64673;52.276;10.560;2022-12-10T07:23:40;21.73;;;7.15;;
75990;SDS011;64673;52.276;10.560;2022-12-10T07:26:05;25.10;;;7.30;;
75990;SDS011;64673;52.276;10.560;2022-12-10T07:28:31;23.58;;;7.55;;
75990;SDS011;64673;52.276;10.560;2022-12-10T07:31:01;23.48;;;7.25;;
75990;SDS011;64673;52.276;10.560;2022-12-10T07:33:27;27.88;;;7.55;;
75990;SDS011;64673;52.276;10.560;2022-12-10T07:35:52;22.83;;;6.55;;
75990;SDS011;64673;52.276;10.560;2022-12-10T07:38:18;23.00;;;6.60;;
75990;SDS011;64673;52.276;10.560;2022-12-10T07:40:43;30.33;;;8.23;;
75990;SDS011;64673;52.276;10.560;2022-12-10T07:43:08;28.30;;;8.13;;
75990;SDS011;64673;52.276;10.560;2022-12-10T07:45:34;21.02;;;6.35;;
75990;SDS011;64673;52.276;10.560;2022-12-10T07:47:59;25.92;;;6.72;;
75990;SDS011;64673;52.276;10.560;2022-12-10T07:50:24;23.13;;;6.75;;
75990;SDS011;64673;52.276;10.560;2022-12-10T07:52:49;23.35;;;7.43;;
75990;SDS011;64673;52.276;10.560;2022-12-10T07:55:15;23.40;;;7.50;;
75990;SDS011;64673;52.276;10.560;2022-12-10T07:57:40;22.55;;;7.80;;
75990;SDS011;64673;52.276;10.560;2022-12-10T08:00:06;23.42;;;7.20;;
75990;SDS011;64673;52.276;10.560;2022-12-10T08:02:31;19.67;;;5.90;;
75990;SDS011;64673;52.276;10.560;2022-12-10T08:04:57;21.83;;;6.63;;
75990;SDS011;64673;52.276;10.560;2022-12-10T08:07:22;19.63;;;6.38;;
75990;SDS011;64673;52.276;10.560;2022-12-10T08:09:47;23.30;;;7.10;;
75990;SDS011;64673;52.276;10.560;2022-12-10T08:12:13;24.45;;;7.30;;
75990;SDS011;64673;52.276;10.560;2022-12-10T08:14:38;24.77;;;6.70;;
75990;SDS011;64673;52.276;10.560;2022-12-10T08:17:04;22.90;;;7.75;;
75990;SDS011;64673;52.276;10.560;2022-12-10T08:19:29;23.40;;;7.93;;
75990;SDS011;64673;52.276;10.560;2022-12-10T08:21:54;27.63;;;8.40;;
75990;SDS011;64673;52.276;10.560;2022-12-10T08:24:20;19.67;;;6.80;;
75990;SDS011;64673;52.276;10.560;2022-12-10T08:26:45;22.67;;;7.57;;
75990;SDS011;64673;52.276;10.560;2022-12-10T08:29:12;21.67;;;7.43;;
75990;SDS011;64673;52.276;10.560;2022-12-10T08:31:37;21.10;;;7.65;;
75990;SDS011;64673;52.276;10.560;2022-12-10T08:34:02;22.52;;;7.32;;
75990;SDS011;64673;52.276;10.560;2022-12-10T08:36:29;17.27;;;6.10;;
75990;SDS011;64673;52.276;10.560;2022-12-10T08:38:55;24.42;;;7.53;;
75990;SDS011;64673;52.276;10.560;2022-12-10T08:41:21;18.50;;;6.05;;
75990;SDS011;64673;52.276;10.560;2022-12-10T08:43:47;17.27;;;6.13;;
75990;SDS011;64673;52.276;10.560;2022-12-10T08:46:13;23.52;;;7.10;;
75990;SDS011;64673;52.276;10.560;2022-12-10T08:48:39;24.77;;;7.85;;
75990;SDS011;64673;52.276;10.560;2022-12-10T08:51:05;20.45;;;6.53;;
75990;SDS011;64673;52.276;10.560;2022-12-10T08:53:32;24.10;;;7.82;;
75990;SDS011;64673;52.276;10.560;2022-12-10T08:55:57;22.95;;;7.68;;
75990;SDS011;64673;52.276;10.560;2022-12-10T08:58:23;23.38;;;7.32;;
75990;SDS011;64673;52.276;10.560;2022-12-10T09:00:49;22.70;;;8.32;;
75990;SDS011;64673;52.276;10.560;2022-12-10T09:03:15;22.70;;;6.93;;
75990;SDS011;64673;52.276;10.560;2022-12-10T09:05:41;22.42;;;7.93;;
75990;SDS011;64673;52.276;10.560;2022-12-10T09:08:06;23.10;;;8.38;;
75990;SDS011;64673;52.276;10.560;2022-12-10T09:10:32;22.52;;;7.60;;
75990;SDS011;64673;52.276;10.560;2022-12-10T09:12:57;23.80;;;6.65;;
75990;SDS011;64673;52.276;10.560;2022-12-10T09:15:22;25.02;;;7.30;;
75990;SDS011;64673;52.276;10.560;2022-12-10T09:17:48;23.98;;;8.40;;
75990;SDS011;64673;52.276;10.560;2022-12-10T09:20:13;25.83;;;9.07;;
75990;SDS011;64673;52.276;10.560;2022-12-10T09:22:39;25.48;;;7.90;;
75990;SDS011;64673;52.276;10.560;2022-12-10T09:25:05;23.77;;;7.05;;
75990;SDS011;64673;52.276;10.560;2022-12-10T09:27:32;23.45;;;7.10;;
75990;SDS011;64673;52.276;10.560;2022-12-10T09:29:58;25.23;;;7.53;;
75990;SDS011;64673;52.276;10.560;2022-12-10T09:32:23;24.02;;;7.50;;
75990;SDS011;64673;52.276;10.560;2022-12-10T09:34:52;25.60;;;7.85;;
75990;SDS011;64673;52.276;10.560;2022-12-10T09:37:17;25.98;;;7.97;;
75990;SDS011;64673;52.276;10.560;2022-12-10T09:39:43;26.83;;;7.85;;
75990;SDS011;64673;52.276;10.560;2022-12-10T09:44:50;28.70;;;8.15;;
75990;SDS011;64673;52.276;10.560;2022-12-10T09:47:31;23.08;;;7.72;;
75990;SDS011;64673;52.276;10.560;2022-12-10T09:50:11;23.02;;;7.35;;
75990;SDS011;64673;52.276;10.560;2022-12-10T09:52:42;29.70;;;8.73;;
75990;SDS011;64673;52.276;10.560;2022-12-10T09:55:15;24.92;;;8.48;;
75990;SDS011;64673;52.276;10.560;2022-12-10T09:57:45;20.67;;;8.10;;
75990;SDS011;64673;52.276;10.560;2022-12-10T10:00:21;20.98;;;6.88;;
75990;SDS011;64673;52.276;10.560;2022-12-10T10:02:57;31.50;;;8.73;;
75990;SDS011;64673;52.276;10.560;2022-12-10T10:05:28;27.63;;;8.85;;
75990;SDS011;64673;52.276;10.560;2022-12-10T10:08:00;25.58;;;8.25;;
75990;SDS011;64673;52.276;10.560;2022-12-10T10:10:29;24.17;;;8.40;;
75990;SDS011;64673;52.276;10.560;2022-12-10T10:15:37;23.95;;;7.10;;
75990;SDS011;64673;52.276;10.560;2022-12-10T10:18:13;27.73;;;7.32;;
75990;SDS011;64673;52.276;10.560;2022-12-10T10:20:39;25.08;;;7.38;;
75990;SDS011;64673;52.276;10.560;2022-12-10T10:23:05;22.92;;;7.68;;
75990;SDS011;64673;52.276;10.560;2022-12-10T10:25:30;23.35;;;6.47;;
75990;SDS011;64673;52.276;10.560;2022-12-10T10:27:56;21.95;;;7.40;;
75990;SDS011;64673;52.276;10.560;2022-12-10T10:30:22;21.48;;;7.18;;
75990;SDS011;64673;52.276;10.560;2022-12-10T10:32:52;21.58;;;6.70;;
75990;SDS011;64673;52.276;10.560;2022-12-10T10:38:05;26.83;;;7.95;;
75990;SDS011;64673;52.276;10.560;2022-12-10T10:40:38;31.52;;;9.90;;
75990;SDS011;64673;52.276;10.560;2022-12-10T10:43:06;22.85;;;8.00;;
75990;SDS011;64673;52.276;10.560;2022-12-10T10:45:41;30.52;;;8.90;;
75990;SDS011;64673;52.276;10.560;2022-12-10T10:50:48;27.35;;;8.05;;
75990;SDS011;64673;52.276;10.560;2022-12-10T10:53:30;21.52;;;6.85;;
75990;SDS011;64673;52.276;10.560;2022-12-10T10:55:59;20.85;;;7.38;;
75990;SDS011;64673;52.276;10.560;2022-12-10T10:58:31;21.98;;;6.88;;
75990;SDS011;64673;52.276;10.560;2022-12-10T11:03:23;28.20;;;8.43;;
75990;SDS011;64673;52.276;10.560;2022-12-10T11:05:49;27.25;;;7.30;;
75990;SDS011;64673;52.276;10.560;2022-12-10T11:08:16;21.67;;;7.20;;
75990;SDS011;64673;52.276;10.560;2022-12-10T11:10:57;23.83;;;7.30;;
75990;SDS011;64673;52.276;10.560;2022-12-10T11:13:28;24.30;;;7.28;;
75990;SDS011;64673;52.276;10.560;2022-12-10T11:18:38;24.30;;;7.25;;
75990;SDS011;64673;52.276;10.560;2022-12-10T11:23:45;24.73;;;6.90;;
75990;SDS011;64673;52.276;10.560;2022-12-10T11:26:19;23.70;;;6.70;;
75990;SDS011;64673;52.276;10.560;2022-12-10T11:34:17;25.45;;;7.05;;
75990;SDS011;64673;52.276;10.560;2022-12-10T11:37:08;29.52;;;7.63;;
75990;SDS011;64673;52.276;10.560;2022-12-10T11:45:19;26.02;;;7.18;;
75990;SDS011;64673;52.276;10.560;2022-12-10T11:50:49;21.70;;;6.18;;
75990;SDS011;64673;52.276;10.560;2022-12-10T12:12:41;19.85;;;6.30;;
75990;SDS011;64673;52.276;10.560;2022-12-10T12:18:04;18.10;;;6.45;;
75990;SDS011;64673;52.276;10.560;2022-12-10T12:20:43;24.98;;;6.88;;
75990;SDS011;64673;52.276;10.560;2022-12-10T12:23:21;29.20;;;8.85;;
75990;SDS011;64673;52.276;10.560;2022-12-10T12:25:53;21.88;;;7.63;;
75990;SDS011;64673;52.276;10.560;2022-12-10T12:28:23;28.85;;;8.80;;
75990;SDS011;64673;52.276;10.560;2022-12-10T12:31:03;20.33;;;6.90;;
75990;SDS011;64673;52.276;10.560;2022-12-10T12:33:35;20.27;;;7.43;;
75990;SDS011;64673;52.276;10.560;2022-12-10T12:36:22;20.58;;;5.93;;
75990;SDS011;64673;52.276;10.560;2022-12-10T12:38:58;18.65;;;6.60;;
75990;SDS011;64673;52.276;10.560;2022-12-10T12:49:59;18.25;;;5.07;;
75990;SDS011;64673;52.276;10.560;2022-12-10T12:52:34;21.98;;;6.53;;
75990;SDS011;64673;52.276;10.560;2022-12-10T12:55:09;18.98;;;5.97;;
75990;SDS011;64673;52.276;10.560;2022-12-10T12:57:46;17.70;;;6.18;;
75990;SDS011;64673;52.276;10.560;2022-12-10T13:00:16;20.52;;;6.18;;
75990;SDS011;64673;52.276;10.560;2022-12-10T13:05:36;15.63;;;5.43;;
75990;SDS011;64673;52.276;10.560;2022-12-10T13:14:03;17.05;;;6.05;;
75990;SDS011;64673;52.276;10.560;2022-12-10T13:16:33;16.27;;;6.68;;
75990;SDS011;64673;52.276;10.560;2022-12-10T13:19:39;18.50;;;5.22;;
75990;SDS011;64673;52.276;10.560;2022-12-10T13:22:08;17.75;;;5.60;;
75990;SDS011;64673;52.276;10.560;2022-12-10T13:27:14;23.07;;;8.80;;
75990;SDS011;64673;52.276;10.560;2022-12-10T13:29:46;18.23;;;6.40;;
75990;SDS011;64673;52.276;10.560;2022-12-10T13:32:21;28.48;;;9.18;;
75990;SDS011;64673;52.276;10.560;2022-12-10T13:37:32;22.20;;;7.90;;
75990;SDS011;64673;52.276;10.560;2022-12-10T13:49:17;21.05;;;7.10;;
75990;SDS011;64673;52.276;10.560;2022-12-10T13:51:54;20.98;;;7.03;;
75990;SDS011;64673;52.276;10.560;2022-12-10T14:07:42;20.08;;;6.22;;
75990;SDS011;64673;52.276;10.560;2022-12-10T14:10:13;18.73;;;6.30;;
75990;SDS011;64673;52.276;10.560;2022-12-10T14:12:42;18.30;;;7.25;;
75990;SDS011;64673;52.276;10.560;2022-12-10T14:17:44;15.50;;;5.90;;
75990;SDS011;64673;52.276;10.560;2022-12-10T14:20:15;20.88;;;5.75;;
75990;SDS011;64673;52.276;10.560;2022-12-10T14:22:47;22.38;;;5.97;;
75990;SDS011;64673;52.276;10.560;2022-12-10T14:25:15;21.63;;;7.07;;
75990;SDS011;64673;52.276;10.560;2022-12-10T14:27:44;18.95;;;6.60;;
75990;SDS011;64673;52.276;10.560;2022-12-10T14:32:40;16.33;;;6.72;;
75990;SDS011;64673;52.276;10.560;2022-12-10T14:35:16;19.60;;;6.93;;
75990;SDS011;64673;52.276;10.560;2022-12-10T14:37:46;20.52;;;7.15;;
75990;SDS011;64673;52.276;10.560;2022-12-10T14:40:23;18.75;;;6.90;;
75990;SDS011;64673;52.276;10.560;2022-12-10T14:42:54;16.27;;;6.65;;
75990;SDS011;64673;52.276;10.560;2022-12-10T14:45:37;16.33;;;6.38;;
75990;SDS011;64673;52.276;10.560;2022-12-10T14:48:12;16.92;;;6.45;;
75990;SDS011;64673;52.276;10.560;2022-12-10T14:50:38;19.48;;;6.45;;
75990;SDS011;64673;52.276;10.560;2022-12-10T14:53:04;23.58;;;7.45;;
75990;SDS011;64673;52.276;10.560;2022-12-10T14:55:36;16.73;;;6.85;;
75990;SDS011;64673;52.276;10.560;2022-12-10T14:58:03;16.63;;;6.82;;
75990;SDS011;64673;52.276;10.560;2022-12-10T15:00:31;14.70;;;6.00;;
75990;SDS011;64673;52.276;10.560;2022-12-10T15:03:02;16.23;;;6.43;;
75990;SDS011;64673;52.276;10.560;2022-12-10T15:05:34;16.42;;;6.28;;
75990;SDS011;64673;52.276;10.560;2022-12-10T15:08:11;16.92;;;6.20;;
75990;SDS011;64673;52.276;10.560;2022-12-10T15:10:40;17.25;;;5.93;;
75990;SDS011;64673;52.276;10.560;2022-12-10T15:13:32;16.17;;;6.13;;
75990;SDS011;64673;52.276;10.560;2022-12-10T15:16:16;17.45;;;5.55;;
75990;SDS011;64673;52.276;10.560;2022-12-10T15:18:43;16.98;;;6.13;;
75990;SDS011;64673;52.276;10.560;2022-12-10T15:21:14;19.38;;;6.10;;
75990;SDS011;64673;52.276;10.560;2022-12-10T15:23:42;17.50;;;6.80;;
75990;SDS011;64673;52.276;10.560;2022-12-10T15:26:19;14.55;;;5.93;;
75990;SDS011;64673;52.276;10.560;2022-12-10T15:28:53;12.63;;;4.85;;
75990;SDS011;64673;52.276;10.560;2022-12-10T15:31:46;15.90;;;6.18;;
75990;SDS011;64673;52.276;10.560;2022-12-10T15:34:12;13.77;;;5.68;;
75990;SDS011;64673;52.276;10.560;2022-12-10T15:36:40;14.40;;;5.32;;
75990;SDS011;64673;52.276;10.560;2022-12-10T15:41:45;12.95;;;4.90;;
75990;SDS011;64673;52.276;10.560;2022-12-10T15:44:32;15.32;;;5.68;;
75990;SDS011;64673;52.276;10.560;2022-12-10T15:47:14;18.65;;;5.72;;
75990;SDS011;64673;52.276;10.560;2022-12-10T15:49:43;15.90;;;5.18;;
75990;SDS011;64673;52.276;10.560;2022-12-10T15:52:19;17.05;;;6.32;;
75990;SDS011;64673;52.276;10.560;2022-12-10T15:54:53;14.85;;;5.25;;
75990;SDS011;64673;52.276;10.560;2022-12-10T15:57:21;15.65;;;6.40;;
75990;SDS011;64673;52.276;10.560;2022-12-10T15:59:51;12.02;;;5.20;;
75990;SDS011;64673;52.276;10.560;2022-12-10T16:07:42;13.50;;;4.95;;
75990;SDS011;64673;52.276;10.560;2022-12-10T16:10:09;14.35;;;5.65;;
75990;SDS011;64673;52.276;10.560;2022-12-10T16:12:36;15.57;;;5.72;;
75990;SDS011;64673;52.276;10.560;2022-12-10T16:15:02;17.10;;;5.63;;
75990;SDS011;64673;52.276;10.560;2022-12-10T16:17:29;11.68;;;5.30;;
75990;SDS011;64673;52.276;10.560;2022-12-10T16:19:58;15.30;;;5.28;;
75990;SDS011;64673;52.276;10.560;2022-12-10T16:22:30;14.60;;;5.85;;
75990;SDS011;64673;52.276;10.560;2022-12-10T16:24:55;14.20;;;5.20;;
75990;SDS011;64673;52.276;10.560;2022-12-10T16:27:21;14.35;;;5.63;;
75990;SDS011;64673;52.276;10.560;2022-12-10T16:29:46;15.35;;;5.47;;
75990;SDS011;64673;52.276;10.560;2022-12-10T16:32:13;15.90;;;6.28;;
75990;SDS011;64673;52.276;10.560;2022-12-10T16:34:39;14.57;;;5.43;;
75990;SDS011;64673;52.276;10.560;2022-12-10T16:37:05;17.05;;;6.25;;
75990;SDS011;64673;52.276;10.560;2022-12-10T16:39:31;16.90;;;6.60;;
75990;SDS011;64673;52.276;10.560;2022-12-10T16:41:57;15.93;;;6.18;;
75990;SDS011;64673;52.276;10.560;2022-12-10T16:44:22;14.00;;;5.90;;
75990;SDS011;64673;52.276;10.560;2022-12-10T16:46:47;15.57;;;5.63;;
75990;SDS011;64673;52.276;10.560;2022-12-10T16:49:13;12.52;;;4.93;;
75990;SDS011;64673;52.276;10.560;2022-12-10T16:51:38;13.63;;;5.90;;
75990;SDS011;64673;52.276;10.560;2022-12-10T16:54:04;15.77;;;5.60;;
75990;SDS011;64673;52.276;10.560;2022-12-10T16:56:30;17.73;;;6.10;;
75990;SDS011;64673;52.276;10.560;2022-12-10T16:58:56;14.15;;;5.90;;